createdAt,value
2018-07-05T15:52:17.817Z,80.60
2018-07-05T15:54:58.044Z,79.60
2018-07-05T15:57:38.412Z,82.80
2018-07-05T16:00:18.692Z,83.40
2018-07-05T16:02:59.022Z,81.80
2018-07-05T16:05:39.382Z,79.50
2018-07-05T16:08:19.829Z,80.60
2018-07-05T16:11:00.153Z,81.40
2018-07-05T16:13:40.846Z,80.40
2018-07-05T16:16:21.112Z,79.70
2018-07-05T16:19:01.676Z,80.00
2018-07-05T16:21:41.892Z,81.40
2018-07-05T16:24:22.131Z,81.60
2018-07-05T16:27:02.334Z,81.50
2018-07-05T16:29:42.752Z,82.30
2018-07-05T16:32:22.827Z,82.10
2018-07-05T16:35:03.491Z,82.50
2018-07-05T16:37:43.566Z,82.80
2018-07-05T16:40:23.931Z,84.10
2018-07-05T16:43:04.433Z,86.20
2018-07-05T16:45:44.762Z,86.00
2018-07-05T16:48:25.025Z,85.60
2018-07-05T16:51:06.016Z,84.10
2018-07-05T16:53:46.073Z,82.30
2018-07-05T16:56:26.298Z,81.80
2018-07-05T16:59:06.482Z,83.20
2018-07-05T17:01:46.752Z,84.30
2018-07-05T17:04:26.923Z,84.50
2018-07-05T17:07:07.014Z,85.00
2018-07-05T17:09:47.150Z,85.50
2018-07-05T17:12:28.371Z,85.70
2018-07-05T17:15:08.555Z,85.40
2018-07-05T17:17:48.857Z,85.60
2018-07-05T17:20:29.167Z,85.60
2018-07-05T17:23:09.509Z,85.40
2018-07-05T17:25:49.942Z,85.50
2018-07-05T17:28:30.128Z,85.80
2018-07-05T17:31:10.332Z,85.20
2018-07-05T17:33:50.797Z,85.30
2018-07-05T17:36:31.002Z,85.70
2018-07-05T17:39:11.985Z,85.90
2018-07-05T17:41:52.376Z,87.20
2018-07-05T17:44:32.670Z,86.50
2018-07-05T17:47:13.309Z,86.20
2018-07-05T17:49:53.581Z,85.90
2018-07-05T17:52:33.824Z,85.90
2018-07-05T17:55:13.930Z,85.80
2018-07-05T17:57:54.144Z,86.50
2018-07-05T18:00:34.554Z,86.70
2018-07-05T18:03:14.734Z,86.80
2018-07-05T18:05:55.178Z,87.30
2018-07-05T18:08:35.417Z,87.80
2018-07-05T18:11:15.861Z,87.60
2018-07-05T18:13:55.974Z,84.60
2018-07-05T18:16:36.366Z,82.90
2018-07-05T18:19:16.490Z,83.50
2018-07-05T18:21:57.017Z,84.00
2018-07-05T18:24:37.860Z,84.00
2018-07-05T18:27:17.980Z,84.60
2018-07-05T18:29:58.550Z,85.20
2018-07-05T18:32:38.993Z,84.40
2018-07-05T18:35:19.316Z,84.80
2018-07-05T18:37:59.422Z,85.00
2018-07-05T18:40:39.745Z,85.90
2018-07-05T18:43:20.017Z,86.50
2018-07-05T18:46:00.195Z,86.40
2018-07-05T18:48:40.440Z,87.30
2018-07-05T18:51:20.590Z,87.20
2018-07-05T18:54:00.983Z,87.40
2018-07-05T18:56:41.227Z,87.50
2018-07-05T18:59:21.798Z,88.00
2018-07-05T19:02:02.310Z,88.10
2018-07-05T19:04:42.599Z,87.80
2018-07-05T19:07:22.820Z,87.80
2018-07-05T19:10:02.956Z,88.00
2018-07-05T19:12:43.133Z,87.90
2018-07-05T19:15:23.421Z,88.00
2018-07-05T19:18:03.933Z,88.30
2018-07-05T19:20:44.101Z,87.60
2018-07-05T19:23:24.431Z,87.60
2018-07-05T19:26:04.603Z,86.50
2018-07-05T19:28:44.843Z,86.50
2018-07-05T19:31:25.083Z,86.80
2018-07-05T19:34:05.394Z,86.20
2018-07-05T19:36:45.609Z,86.60
2018-07-05T19:39:25.933Z,86.80
2018-07-05T19:42:06.240Z,87.30
2018-07-05T19:44:46.571Z,87.80
2018-07-05T19:47:26.957Z,88.10
2018-07-05T19:50:07.497Z,88.90
2018-07-05T19:52:47.761Z,88.20
2018-07-05T19:55:28.109Z,88.10
2018-07-05T19:58:08.424Z,87.90
2018-07-05T20:00:48.618Z,88.40
2018-07-05T20:03:28.929Z,88.30
2018-07-05T20:06:09.003Z,88.40
2018-07-05T20:08:49.403Z,88.60
2018-07-05T20:11:29.649Z,89.50
2018-07-05T20:14:09.764Z,89.40
2018-07-05T20:16:50.247Z,89.20
2018-07-05T20:19:30.981Z,89.20
2018-07-05T20:22:16.801Z,89.00
2018-07-05T20:24:57.133Z,89.30
2018-07-05T20:27:37.633Z,89.00
2018-07-05T20:30:18.081Z,89.50
2018-07-05T20:32:58.393Z,89.60
2018-07-05T20:35:38.715Z,89.60
2018-07-05T20:38:18.821Z,89.60
2018-07-05T20:40:59.270Z,89.80
2018-07-05T20:43:39.804Z,90.00
2018-07-05T20:46:20.144Z,90.20
2018-07-05T20:49:00.545Z,90.40
2018-07-05T20:51:40.829Z,90.40
2018-07-05T20:54:21.169Z,90.30
2018-07-05T20:57:01.583Z,90.70
2018-07-05T20:59:42.784Z,91.10
2018-07-05T21:02:23.995Z,91.20
2018-07-05T21:05:04.579Z,91.40
2018-07-05T21:07:46.245Z,91.30
2018-07-05T21:10:26.688Z,91.40
2018-07-05T21:13:07.443Z,91.60
2018-07-05T21:15:47.601Z,91.70
2018-07-05T21:18:27.601Z,91.70
2018-07-05T21:21:08.514Z,91.90
2018-07-05T21:23:48.497Z,92.10
2018-07-05T21:26:29.176Z,91.80
2018-07-05T21:29:09.428Z,91.90
2018-07-05T21:31:49.816Z,92.00
2018-07-05T21:34:30.384Z,91.90
2018-07-05T21:39:44.948Z,92.20
2018-07-05T21:42:25.362Z,92.20
2018-07-05T21:45:05.484Z,92.20
2018-07-05T21:47:45.699Z,92.60
2018-07-05T21:50:26.786Z,92.50
2018-07-05T21:53:07.229Z,92.90
2018-07-05T21:55:47.690Z,93.20
2018-07-05T21:58:28.415Z,92.90
2018-07-05T22:01:08.816Z,92.60
2018-07-05T22:03:48.850Z,93.20
2018-07-05T22:06:29.056Z,93.20
2018-07-05T22:09:09.443Z,93.70
2018-07-05T22:11:49.700Z,93.90
2018-07-05T22:14:30.308Z,93.70
2018-07-05T22:17:15.962Z,94.00
2018-07-05T22:20:01.744Z,94.10
2018-07-05T22:22:47.633Z,93.70
2018-07-05T22:25:33.824Z,93.20
2018-07-05T22:28:19.621Z,93.20
2018-07-05T22:31:05.442Z,93.40
2018-07-05T22:33:45.794Z,93.10
2018-07-05T22:36:25.916Z,93.30
2018-07-05T22:39:06.608Z,94.10
2018-07-05T22:41:46.940Z,94.40
2018-07-05T22:44:27.308Z,94.20
2018-07-05T22:47:07.740Z,94.20
2018-07-05T22:49:48.028Z,93.60
2018-07-05T22:52:28.197Z,94.10
2018-07-05T22:55:08.452Z,94.40
2018-07-05T22:57:48.640Z,94.30
2018-07-05T23:00:28.946Z,94.60
2018-07-05T23:03:09.062Z,94.70
2018-07-05T23:05:49.270Z,94.50
2018-07-05T23:08:29.800Z,94.70
2018-07-05T23:11:10.159Z,94.50
2018-07-05T23:13:51.029Z,94.20
2018-07-05T23:16:31.089Z,94.50
2018-07-05T23:19:11.560Z,94.60
2018-07-05T23:21:52.183Z,94.50
2018-07-05T23:24:33.139Z,94.80
2018-07-05T23:27:13.702Z,94.40
2018-07-05T23:29:53.878Z,94.20
2018-07-05T23:32:34.030Z,93.90
2018-07-05T23:35:15.032Z,94.30
2018-07-05T23:37:55.256Z,94.60
2018-07-05T23:40:35.396Z,94.50
2018-07-05T23:43:15.591Z,94.30
2018-07-05T23:45:55.856Z,94.20
2018-07-05T23:48:36.120Z,94.60
2018-07-05T23:51:16.505Z,94.80
2018-07-05T23:53:56.856Z,94.90
2018-07-05T23:56:37.215Z,95.00
2018-07-05T23:59:17.541Z,95.20
